Time;durP1;ratioP1;P1;durP2;ratioP2;P2;SDS_P1;SDS_P2;PMS_P1;PMS_P2;Temp;Humidity;BMP_temperature;BMP_pressure;BME280_temperature;BME280_humidity;BME280_pressure;Samples;Min_cycle;Max_cycle;Signal;HPM_P1;HPM_P2
2022/02/19 00:00:10;;;;;;;4.55;1.77;;;7.60;51.10;;;;;;5036924;28;20207;-59
2022/02/19 00:02:38;;;;;;;5.10;1.85;;;7.60;50.70;;;;;;5036513;28;20190;-59
2022/02/19 00:05:06;;;;;;;13.93;2.42;;;7.60;50.10;;;;;;5037660;28;20565;-59
2022/02/19 00:07:34;;;;;;;2.88;2.00;;;7.60;50.50;;;;;;5037353;28;20213;-58
2022/02/19 00:10:02;;;;;;;5.53;1.90;;;7.50;50.90;;;;;;5038478;28;20214;-59
2022/02/19 00:12:29;;;;;;;6.15;1.90;;;7.50;50.90;;;;;;5037141;28;20576;-58
2022/02/19 00:14:56;;;;;;;5.80;1.50;;;7.50;50.70;;;;;;5035211;28;20594;-58
2022/02/19 00:17:24;;;;;;;6.40;1.70;;;7.40;50.60;;;;;;5035951;28;20199;-60
2022/02/19 00:19:52;;;;;;;5.40;1.50;;;7.50;50.10;;;;;;5036952;28;20226;-59
2022/02/19 00:22:20;;;;;;;7.57;1.70;;;7.50;49.70;;;;;;5037065;28;20590;-58
2022/02/19 00:24:49;;;;;;;11.25;2.80;;;7.50;49.80;;;;;;5039292;28;20201;-59
2022/02/19 00:27:16;;;;;;;7.75;2.40;;;7.50;50.20;;;;;;5041699;28;20206;-59
2022/02/19 00:29:43;;;;;;;7.10;2.42;;;7.40;50.60;;;;;;5039783;28;20718;-58
2022/02/19 00:32:10;;;;;;;5.95;1.90;;;7.40;50.90;;;;;;5039594;28;20209;-59
2022/02/19 00:34:38;;;;;;;6.53;2.90;;;7.40;51.20;;;;;;5039737;28;20222;-59
2022/02/19 00:37:05;;;;;;;7.45;2.20;;;7.30;51.00;;;;;;5041150;28;20689;-59
2022/02/19 00:39:32;;;;;;;7.32;1.75;;;7.30;51.10;;;;;;5041080;28;20222;-59
2022/02/19 00:42:02;;;;;;;6.88;2.20;;;7.30;51.30;;;;;;5040513;28;20213;-58
2022/02/19 00:44:31;;;;;;;7.07;2.47;;;7.30;51.50;;;;;;5038740;28;20573;-59
2022/02/19 00:46:58;;;;;;;5.65;1.65;;;7.30;51.70;;;;;;5038307;28;20682;-59
2022/02/19 00:49:25;;;;;;;9.40;2.35;;;7.30;52.10;;;;;;5038490;28;20271;-59
2022/02/19 00:51:52;;;;;;;9.23;2.15;;;7.30;52.20;;;;;;5039409;28;20213;-58
2022/02/19 00:54:19;;;;;;;8.38;2.17;;;7.30;52.70;;;;;;5040002;28;20225;-59
2022/02/19 00:56:46;;;;;;;9.02;2.30;;;7.30;52.40;;;;;;5039932;28;20240;-59
2022/02/19 00:59:15;;;;;;;9.13;1.77;;;7.30;52.90;;;;;;5040077;28;20252;-59
2022/02/19 01:01:42;;;;;;;11.95;2.55;;;7.30;52.50;;;;;;5039895;28;20206;-58
2022/02/19 01:04:09;;;;;;;11.57;3.40;;;7.30;52.40;;;;;;5039733;28;20194;-58
2022/02/19 01:06:36;;;;;;;3.72;1.65;;;7.30;52.40;;;;;;5040503;28;20210;-59
2022/02/19 01:09:04;;;;;;;7.50;2.10;;;7.20;52.10;;;;;;5039459;28;20225;-59
2022/02/19 01:11:31;;;;;;;6.88;1.50;;;7.20;52.10;;;;;;5039463;28;20199;-59
2022/02/19 01:13:58;;;;;;;7.55;1.88;;;7.30;52.60;;;;;;5037835;28;20241;-59
2022/02/19 01:16:26;;;;;;;3.15;1.58;;;7.20;52.80;;;;;;5036639;28;20202;-59
2022/02/19 01:18:53;;;;;;;3.35;1.55;;;7.20;52.70;;;;;;5036260;28;20229;-58
2022/02/19 01:21:21;;;;;;;8.70;2.00;;;7.20;52.80;;;;;;5036642;28;20229;-57
2022/02/19 01:23:48;;;;;;;9.45;1.92;;;7.20;53.20;;;;;;5036397;28;20198;-58
2022/02/19 01:26:15;;;;;;;9.80;2.60;;;7.20;53.20;;;;;;5038997;28;20198;-58
2022/02/19 01:28:42;;;;;;;6.10;2.10;;;7.10;53.60;;;;;;5037539;28;20253;-58
2022/02/19 01:31:10;;;;;;;4.47;1.52;;;7.10;53.80;;;;;;5039205;28;20206;-59
2022/02/19 01:33:38;;;;;;;6.22;1.88;;;7.10;53.70;;;;;;5038587;28;20289;-58
2022/02/19 01:36:05;;;;;;;5.80;1.50;;;7.00;53.50;;;;;;5038821;28;20309;-59
2022/02/19 01:38:32;;;;;;;4.32;1.60;;;7.00;53.70;;;;;;5039351;28;20226;-57
2022/02/19 01:41:00;;;;;;;3.80;1.73;;;7.00;54.00;;;;;;5039377;28;20591;-57
2022/02/19 01:43:27;;;;;;;5.35;1.73;;;7.00;54.20;;;;;;5039310;28;20231;-58
2022/02/19 01:45:56;;;;;;;3.97;1.58;;;6.90;54.10;;;;;;5039173;28;20567;-57
2022/02/19 01:48:23;;;;;;;4.75;1.70;;;6.90;54.30;;;;;;5038542;28;20218;-58
2022/02/19 01:50:52;;;;;;;7.78;1.70;;;6.90;54.50;;;;;;5039228;28;20205;-59
2022/02/19 01:53:20;;;;;;;7.40;1.98;;;6.90;54.60;;;;;;5039882;28;20217;-59
2022/02/19 01:55:47;;;;;;;3.03;0.93;;;6.90;54.90;;;;;;5039049;28;20264;-58
2022/02/19 01:58:15;;;;;;;2.33;1.30;;;6.80;55.10;;;;;;5039698;28;20279;-58
2022/02/19 02:00:42;;;;;;;6.25;1.58;;;6.80;55.10;;;;;;5039368;28;20221;-58
2022/02/19 02:03:09;;;;;;;7.60;1.80;;;6.80;55.30;;;;;;5039302;28;20203;-58
2022/02/19 02:05:37;;;;;;;6.43;1.73;;;6.70;55.50;;;;;;5040468;28;20289;-59
2022/02/19 02:08:07;;;;;;;9.52;2.35;;;6.70;55.80;;;;;;5041640;28;20218;-59
2022/02/19 02:10:35;;;;;;;5.32;1.80;;;6.70;56.10;;;;;;5042746;28;20658;-59
2022/02/19 02:13:04;;;;;;;12.20;2.20;;;6.60;56.50;;;;;;5042518;28;20264;-59
2022/02/19 02:15:33;;;;;;;6.40;2.03;;;6.60;56.70;;;;;;5041518;28;20222;-57
2022/02/19 02:18:02;;;;;;;4.95;1.55;;;6.70;56.70;;;;;;5039753;28;20233;-59
2022/02/19 02:20:29;;;;;;;2.38;1.48;;;6.60;56.80;;;;;;5040144;28;20206;-59
2022/02/19 02:22:57;;;;;;;5.65;2.28;;;6.60;57.20;;;;;;5038289;28;20209;-58
2022/02/19 02:25:27;;;;;;;7.13;2.08;;;6.60;57.40;;;;;;5039210;28;20198;-59
2022/02/19 02:27:55;;;;;;;5.20;2.03;;;6.60;57.60;;;;;;5038225;28;20309;-59
2022/02/19 02:30:23;;;;;;;4.63;1.63;;;6.60;57.90;;;;;;5038278;28;20588;-60
2022/02/19 02:32:50;;;;;;;13.32;1.95;;;6.60;58.00;;;;;;5036573;28;20674;-59
2022/02/19 02:35:18;;;;;;;5.38;2.50;;;6.60;58.20;;;;;;5037326;28;20230;-60
2022/02/19 02:37:45;;;;;;;3.58;1.67;;;6.60;58.50;;;;;;5036970;28;20206;-59
2022/02/19 02:40:14;;;;;;;6.20;1.58;;;6.60;59.10;;;;;;5036826;28;20209;-58
2022/02/19 02:42:41;;;;;;;7.35;2.00;;;6.60;60.10;;;;;;5036661;28;20202;-58
2022/02/19 02:45:08;;;;;;;7.78;1.80;;;6.50;61.40;;;;;;5035468;28;20576;-59
2022/02/19 02:47:41;;;;;;;4.68;2.45;;;6.40;62.60;;;;;;5034624;28;20206;-60
2022/02/19 02:50:10;;;;;;;7.07;1.65;;;6.40;63.40;;;;;;5034670;28;20667;-60
2022/02/19 02:52:38;;;;;;;10.82;1.70;;;6.30;64.30;;;;;;5034930;28;20272;-59
2022/02/19 02:55:07;;;;;;;4.40;1.80;;;6.30;65.80;;;;;;5035428;28;20222;-59
2022/02/19 02:57:36;;;;;;;9.20;2.40;;;6.30;67.80;;;;;;5036022;28;20210;-60
2022/02/19 03:00:06;;;;;;;6.40;1.73;;;6.20;69.80;;;;;;5035400;28;20626;-59
2022/02/19 03:02:34;;;;;;;10.15;2.03;;;6.10;70.60;;;;;;5034878;28;20274;-60
2022/02/19 03:05:01;;;;;;;5.82;1.60;;;6.10;71.30;;;;;;5034817;28;20483;-59
2022/02/19 03:07:30;;;;;;;3.65;1.45;;;6.10;72.40;;;;;;5034414;28;20202;-58
2022/02/19 03:09:57;;;;;;;4.50;2.05;;;6.00;72.80;;;;;;5034320;28;20623;-59
2022/02/19 03:12:24;;;;;;;6.13;1.40;;;6.00;73.50;;;;;;5034667;28;20203;-59
2022/02/19 03:14:54;;;;;;;3.83;1.80;;;6.00;75.40;;;;;;5034714;28;20218;-58
2022/02/19 03:17:21;;;;;;;3.63;1.50;;;5.90;77.20;;;;;;5034486;28;20233;-59
2022/02/19 03:19:48;;;;;;;3.58;1.27;;;5.90;79.30;;;;;;5034077;28;20222;-59
2022/02/19 03:22:15;;;;;;;4.93;1.33;;;5.80;80.90;;;;;;5035127;28;20209;-58
2022/02/19 03:24:43;;;;;;;3.40;1.38;;;5.70;84.20;;;;;;5034264;28;20198;-59
2022/02/19 03:27:10;;;;;;;4.97;2.05;;;5.60;87.60;;;;;;5033989;28;20202;-59
2022/02/19 03:29:37;;;;;;;8.80;2.88;;;5.40;90.10;;;;;;5033686;28;20230;-59
2022/02/19 03:32:06;;;;;;;6.75;1.95;;;5.30;91.30;;;;;;5034235;28;20206;-59
2022/02/19 03:34:33;;;;;;;3.05;1.60;;;5.20;92.20;;;;;;5034409;28;20229;-58
2022/02/19 03:37:01;;;;;;;4.35;1.75;;;5.10;92.50;;;;;;5034005;28;20678;-60
2022/02/19 03:39:28;;;;;;;5.25;1.73;;;5.10;92.70;;;;;;5034331;28;20229;-60
2022/02/19 03:41:55;;;;;;;13.45;2.47;;;5.10;92.80;;;;;;5034561;28;20206;-59
2022/02/19 03:44:22;;;;;;;9.77;1.80;;;5.10;93.70;;;;;;5034867;28;20206;-59
2022/02/19 03:46:49;;;;;;;3.58;1.90;;;5.00;94.50;;;;;;5034509;28;20203;-59
2022/02/19 03:49:18;;;;;;;6.85;1.85;;;4.90;95.30;;;;;;5033809;28;20228;-59
2022/02/19 03:51:45;;;;;;;3.38;1.75;;;4.80;96.50;;;;;;5034716;28;20208;-59
2022/02/19 03:54:12;;;;;;;4.60;1.20;;;4.70;97.10;;;;;;5034635;28;20198;-59
2022/02/19 03:56:39;;;;;;;4.60;1.60;;;4.70;97.20;;;;;;5034890;28;20230;-59
2022/02/19 03:59:06;;;;;;;6.97;1.60;;;4.70;97.10;;;;;;5036249;28;20277;-60
2022/02/19 04:01:34;;;;;;;7.03;2.85;;;4.70;97.00;;;;;;5035474;28;20209;-60
2022/02/19 04:04:01;;;;;;;6.45;2.00;;;4.70;96.70;;;;;;5034623;28;20206;-60
2022/02/19 04:09:22;;;;;;;7.13;1.45;;;4.80;96.70;;;;;;5094884;27;20552;-61
2022/02/19 04:11:49;;;;;;;6.10;1.65;;;4.80;96.70;;;;;;5096734;28;20223;-61
2022/02/19 04:14:16;;;;;;;4.85;1.92;;;4.80;96.90;;;;;;5094855;28;20207;-60
2022/02/19 04:16:43;;;;;;;2.33;1.65;;;4.80;97.30;;;;;;5093441;28;20206;-60
2022/02/19 04:19:10;;;;;;;6.55;2.17;;;4.80;97.70;;;;;;5091705;28;20703;-61
2022/02/19 04:21:38;;;;;;;4.63;1.75;;;4.70;98.30;;;;;;5093827;22;20600;-64
2022/02/19 04:24:05;;;;;;;3.88;1.88;;;4.70;98.90;;;;;;5050669;28;20210;-62
2022/02/19 04:26:34;;;;;;;8.50;2.17;;;4.60;99.70;;;;;;5050084;28;20284;-62
2022/02/19 04:29:01;;;;;;;6.82;2.25;;;4.70;99.80;;;;;;5049984;28;20221;-62
2022/02/19 04:31:28;;;;;;;5.57;1.80;;;4.60;99.90;;;;;;5051005;28;20816;-64
2022/02/19 04:33:55;;;;;;;6.47;1.77;;;4.60;99.90;;;;;;5050396;28;20204;-63
2022/02/19 04:36:22;;;;;;;8.40;2.10;;;4.60;99.90;;;;;;5050095;28;20213;-63
2022/02/19 04:38:49;;;;;;;11.13;2.40;;;4.60;99.90;;;;;;5049996;28;20202;-63
2022/02/19 04:41:16;;;;;;;4.82;1.67;;;4.60;99.90;;;;;;5049655;28;20728;-63
2022/02/19 04:43:45;;;;;;;4.75;1.40;;;4.60;99.90;;;;;;5049950;28;20548;-63
2022/02/19 04:46:12;;;;;;;2.95;1.70;;;4.70;99.90;;;;;;5049916;28;20209;-62
2022/02/19 04:48:39;;;;;;;1.90;1.27;;;4.70;99.90;;;;;;5050358;28;20244;-64
2022/02/19 04:51:06;;;;;;;4.05;2.28;;;4.60;99.90;;;;;;5049760;28;20229;-64
2022/02/19 04:53:33;;;;;;;4.47;1.90;;;4.60;99.90;;;;;;5049730;28;20209;-63
2022/02/19 04:56:00;;;;;;;2.90;1.52;;;4.60;99.90;;;;;;5049725;28;20205;-63
2022/02/19 04:58:27;;;;;;;5.53;1.90;;;4.50;99.90;;;;;;5049747;28;20198;-63
2022/02/19 05:00:55;;;;;;;5.13;1.60;;;4.40;99.90;;;;;;5049571;28;20226;-62
2022/02/19 05:03:23;;;;;;;3.17;1.67;;;4.30;99.90;;;;;;5049624;28;20300;-63
2022/02/19 05:05:50;;;;;;;3.92;1.65;;;4.30;99.90;;;;;;5049763;28;20209;-63
2022/02/19 05:08:17;;;;;;;4.05;1.65;;;4.30;99.90;;;;;;5049662;28;20218;-63
2022/02/19 05:10:44;;;;;;;4.38;1.45;;;4.30;99.90;;;;;;5049992;28;20573;-63
2022/02/19 05:13:11;;;;;;;6.03;2.15;;;4.30;99.90;;;;;;5049254;28;20670;-63
2022/02/19 05:15:38;;;;;;;2.95;1.77;;;4.30;99.90;;;;;;5049842;28;20217;-63
2022/02/19 05:18:08;;;;;;;5.53;2.00;;;4.40;99.90;;;;;;5049396;28;20701;-63
2022/02/19 05:20:35;;;;;;;2.13;1.60;;;4.40;99.90;;;;;;5036476;28;20252;-63
2022/02/19 05:23:02;;;;;;;7.22;3.97;;;4.40;99.90;;;;;;5036398;28;20187;-62
2022/02/19 05:25:29;;;;;;;2.38;1.20;;;4.50;99.90;;;;;;5036087;28;20214;-63
2022/02/19 05:27:56;;;;;;;4.32;1.50;;;4.40;99.90;;;;;;5036046;28;20219;-63
2022/02/19 05:30:24;;;;;;;4.07;1.48;;;4.50;99.90;;;;;;5036079;28;20202;-64
2022/02/19 05:32:51;;;;;;;3.30;1.42;;;4.50;99.90;;;;;;5036295;28;20203;-63
2022/02/19 05:35:19;;;;;;;4.57;1.75;;;4.50;99.90;;;;;;5036350;28;20206;-63
2022/02/19 05:37:46;;;;;;;5.57;1.60;;;4.50;99.90;;;;;;5036256;28;20201;-62
2022/02/19 05:40:13;;;;;;;3.83;1.65;;;4.50;99.90;;;;;;5036073;28;20203;-63
2022/02/19 05:42:40;;;;;;;4.28;1.38;;;4.60;99.90;;;;;;5035804;28;20234;-62
2022/02/19 05:45:08;;;;;;;5.78;2.15;;;4.60;99.90;;;;;;5036023;28;20206;-63
2022/02/19 05:47:35;;;;;;;6.10;1.83;;;4.60;99.90;;;;;;5035598;28;20210;-63
2022/02/19 05:50:02;;;;;;;7.95;1.50;;;4.70;99.90;;;;;;5035873;28;20209;-63
2022/02/19 05:52:31;;;;;;;5.93;1.42;;;4.60;99.90;;;;;;5035232;28;20219;-62
2022/02/19 05:54:58;;;;;;;7.32;1.70;;;4.50;99.90;;;;;;5035603;28;20198;-62
2022/02/19 05:57:25;;;;;;;3.60;1.75;;;4.40;99.90;;;;;;5035349;28;20209;-62
2022/02/19 05:59:52;;;;;;;6.25;1.73;;;4.20;99.90;;;;;;5035216;28;20203;-62
2022/02/19 06:02:20;;;;;;;9.65;2.72;;;4.00;99.90;;;;;;5035467;28;20221;-61
2022/02/19 06:04:47;;;;;;;6.03;2.00;;;4.00;99.90;;;;;;5035620;28;20203;-62
2022/02/19 06:07:15;;;;;;;3.67;1.63;;;3.90;99.90;;;;;;5035511;28;20202;-62
2022/02/19 06:09:43;;;;;;;7.40;2.10;;;3.80;99.90;;;;;;5035288;28;20237;-62
2022/02/19 06:12:11;;;;;;;3.75;1.65;;;3.70;99.90;;;;;;5035494;28;20592;-62
2022/02/19 06:14:38;;;;;;;9.50;2.58;;;3.70;99.90;;;;;;5034826;28;20211;-62
2022/02/19 06:17:05;;;;;;;6.93;2.10;;;3.60;99.90;;;;;;5036089;28;20710;-63
2022/02/19 06:19:32;;;;;;;8.35;3.05;;;3.50;99.90;;;;;;5035366;28;20202;-62
2022/02/19 06:22:00;;;;;;;3.92;1.70;;;3.50;99.90;;;;;;5034666;28;20234;-62
2022/02/19 06:24:27;;;;;;;6.68;1.63;;;3.50;99.90;;;;;;5034701;28;20202;-62
2022/02/19 06:26:56;;;;;;;4.45;1.60;;;3.50;99.90;;;;;;5034795;28;20575;-62
2022/02/19 06:29:23;;;;;;;4.18;1.40;;;3.50;99.90;;;;;;5034801;28;20223;-63
2022/02/19 06:31:50;;;;;;;4.57;2.75;;;3.50;99.90;;;;;;5033641;28;20749;-61
2022/02/19 06:34:17;;;;;;;6.38;1.80;;;3.60;99.90;;;;;;5034754;28;20202;-63
2022/02/19 06:36:44;;;;;;;8.38;1.90;;;3.60;99.90;;;;;;5034418;28;20209;-63
2022/02/19 06:39:11;;;;;;;5.40;1.42;;;3.60;99.90;;;;;;5034300;28;20199;-61
2022/02/19 06:41:38;;;;;;;6.05;1.95;;;3.70;99.90;;;;;;5034424;28;20629;-62
2022/02/19 06:44:07;;;;;;;10.40;1.75;;;3.80;99.90;;;;;;5034517;28;20211;-63
2022/02/19 06:46:34;;;;;;;4.72;1.70;;;3.80;99.90;;;;;;5034305;28;20213;-64
2022/02/19 06:49:01;;;;;;;3.70;1.73;;;3.90;99.90;;;;;;5034525;28;20305;-63
2022/02/19 06:51:29;;;;;;;8.60;2.50;;;3.90;99.90;;;;;;5034203;28;20226;-63
2022/02/19 06:53:57;;;;;;;5.28;1.70;;;4.00;99.90;;;;;;5034181;28;20234;-63
2022/02/19 06:56:25;;;;;;;5.88;1.83;;;4.10;99.90;;;;;;5034370;28;20237;-62
2022/02/19 06:58:54;;;;;;;6.07;1.95;;;4.20;99.90;;;;;;5034177;28;20289;-63
2022/02/19 07:01:22;;;;;;;3.83;1.35;;;4.30;99.90;;;;;;5034428;28;20219;-63
2022/02/19 07:03:49;;;;;;;3.45;1.83;;;4.40;99.40;;;;;;5034117;28;20672;-64
2022/02/19 07:06:16;;;;;;;3.75;1.70;;;4.50;98.50;;;;;;5033950;28;20234;-62
2022/02/19 07:08:44;;;;;;;6.47;1.90;;;4.60;97.60;;;;;;5033946;28;20218;-64
2022/02/19 07:11:11;;;;;;;7.15;2.17;;;4.60;96.90;;;;;;5033594;28;20226;-64
2022/02/19 07:13:39;;;;;;;4.18;1.38;;;4.80;95.60;;;;;;5033596;28;20206;-64
2022/02/19 07:16:06;;;;;;;10.13;2.15;;;4.80;94.80;;;;;;5033626;28;20213;-64
2022/02/19 07:18:35;;;;;;;6.18;2.05;;;4.90;94.20;;;;;;5033888;28;20205;-63
2022/02/19 07:21:02;;;;;;;5.03;1.40;;;5.00;93.10;;;;;;5033538;28;20229;-64
2022/02/19 07:23:29;;;;;;;3.45;2.13;;;5.00;92.90;;;;;;5033727;28;20194;-64
2022/02/19 07:25:56;;;;;;;8.00;2.00;;;5.10;93.00;;;;;;5033659;28;20658;-65
2022/02/19 07:28:23;;;;;;;3.13;1.60;;;5.10;93.00;;;;;;5033352;28;20230;-64
2022/02/19 07:30:51;;;;;;;11.52;2.15;;;5.10;92.90;;;;;;5033266;28;20230;-64
2022/02/19 07:33:18;;;;;;;6.70;1.92;;;5.10;92.10;;;;;;5033443;28;20202;-64
2022/02/19 07:35:46;;;;;;;5.07;1.23;;;5.20;92.10;;;;;;5033661;28;20209;-65
2022/02/19 07:38:13;;;;;;;7.13;1.80;;;5.20;91.70;;;;;;5034399;28;20566;-63
2022/02/19 07:40:40;;;;;;;7.03;1.63;;;5.30;91.30;;;;;;5033585;28;20209;-64
2022/02/19 07:43:07;;;;;;;2.15;1.55;;;5.30;90.80;;;;;;5032876;28;20202;-62
2022/02/19 07:45:34;;;;;;;4.63;1.70;;;5.30;89.90;;;;;;5033519;28;20213;-64
2022/02/19 07:48:01;;;;;;;13.07;2.25;;;5.40;89.40;;;;;;5033236;28;20285;-63
2022/02/19 07:58:49;;;;;;;7.50;1.77;;;5.60;89.30;;;;;;5033318;28;20554;-63
2022/02/19 08:01:16;;;;;;;5.47;1.90;;;5.70;87.70;;;;;;5033244;28;20222;-63
2022/02/19 08:03:43;;;;;;;5.30;1.35;;;5.70;88.10;;;;;;5033644;28;20229;-63
2022/02/19 08:06:10;;;;;;;9.82;2.58;;;5.80;87.60;;;;;;5033246;28;20289;-63
2022/02/19 08:08:39;;;;;;;4.20;2.20;;;5.80;87.10;;;;;;5033207;28;20722;-63
2022/02/19 08:11:06;;;;;;;3.03;1.50;;;5.80;87.00;;;;;;5033712;28;20233;-63
2022/02/19 08:13:33;;;;;;;11.80;2.65;;;5.70;86.30;;;;;;5034532;28;20214;-63
2022/02/19 08:16:01;;;;;;;6.47;2.42;;;5.70;86.50;;;;;;5033655;28;20198;-63
2022/02/19 08:18:28;;;;;;;6.07;1.85;;;5.70;86.00;;;;;;5033303;28;20202;-63
2022/02/19 08:20:55;;;;;;;4.28;1.98;;;5.80;86.20;;;;;;5032923;28;20230;-63
2022/02/19 08:23:23;;;;;;;5.60;2.08;;;5.80;86.30;;;;;;5033301;28;20197;-63
2022/02/19 08:25:52;;;;;;;4.95;1.58;;;5.90;85.10;;;;;;5033200;28;20662;-64
2022/02/19 08:28:20;;;;;;;4.88;1.52;;;6.00;82.90;;;;;;5032961;28;20209;-63
2022/02/19 08:30:50;;;;;;;5.13;1.73;;;6.00;82.70;;;;;;5033555;28;20230;-63
2022/02/19 08:33:18;;;;;;;8.60;2.40;;;6.00;83.20;;;;;;5039016;28;20210;-63
2022/02/19 08:35:45;;;;;;;6.10;2.05;;;6.10;83.20;;;;;;5037073;28;20206;-63
2022/02/19 08:38:12;;;;;;;7.90;2.45;;;6.10;82.40;;;;;;5034712;28;20206;-62
2022/02/19 08:40:40;;;;;;;3.95;2.03;;;6.20;81.80;;;;;;5033195;28;20297;-63
2022/02/19 08:43:09;;;;;;;6.95;2.08;;;6.30;81.20;;;;;;5033969;28;20224;-64
2022/02/19 08:45:36;;;;;;;10.02;2.00;;;6.20;81.00;;;;;;5033299;28;20202;-64
2022/02/19 08:48:04;;;;;;;4.40;1.52;;;6.30;80.70;;;;;;5032904;28;20206;-63
2022/02/19 08:50:33;;;;;;;3.75;1.73;;;6.30;79.90;;;;;;5032389;28;20316;-63
2022/02/19 08:53:00;;;;;;;11.77;2.78;;;6.30;79.70;;;;;;5032839;28;20202;-62
2022/02/19 08:55:29;;;;;;;7.22;2.38;;;6.20;80.50;;;;;;5035467;28;20217;-61
2022/02/19 08:57:56;;;;;;;4.60;1.73;;;6.20;79.80;;;;;;5036579;28;20248;-61
2022/02/19 09:00:25;;;;;;;3.40;1.80;;;6.20;79.50;;;;;;5036898;28;20202;-62
2022/02/19 09:02:53;;;;;;;5.70;2.05;;;6.20;80.00;;;;;;5036613;28;20209;-62
2022/02/19 09:05:20;;;;;;;6.13;1.33;;;6.20;79.80;;;;;;5036203;28;20685;-62
2022/02/19 09:07:47;;;;;;;6.50;1.70;;;6.30;79.90;;;;;;5036379;28;20249;-62
2022/02/19 09:10:15;;;;;;;7.25;2.20;;;6.30;79.30;;;;;;5036285;28;20226;-61
2022/02/19 09:12:46;;;;;;;9.55;2.55;;;6.40;78.80;;;;;;5036449;28;20234;-62
2022/02/19 09:15:14;;;;;;;8.05;1.80;;;6.40;78.50;;;;;;5036306;28;20190;-60
2022/02/19 09:17:43;;;;;;;6.22;2.75;;;6.40;78.50;;;;;;5035985;28;20238;-61
2022/02/19 09:20:11;;;;;;;13.32;2.28;;;6.30;78.80;;;;;;5036191;28;20198;-62
2022/02/19 09:22:39;;;;;;;4.30;1.75;;;6.30;78.10;;;;;;5035742;28;20608;-61
2022/02/19 09:25:08;;;;;;;6.90;1.90;;;6.30;78.80;;;;;;5035899;28;20199;-61
2022/02/19 09:27:35;;;;;;;4.30;1.55;;;6.20;79.50;;;;;;5036003;28;20211;-62
2022/02/19 09:30:04;;;;;;;5.25;1.95;;;6.20;79.60;;;;;;5035989;28;20221;-63
2022/02/19 09:32:31;;;;;;;15.43;2.50;;;6.20;78.90;;;;;;5035962;28;20222;-63
2022/02/19 09:35:00;;;;;;;9.75;2.15;;;6.20;78.50;;;;;;5035918;28;20206;-61
2022/02/19 09:37:28;;;;;;;7.65;1.98;;;6.30;77.50;;;;;;5036081;28;20199;-61
2022/02/19 09:39:56;;;;;;;7.68;1.70;;;6.30;76.50;;;;;;5035564;28;20221;-60
2022/02/19 09:42:24;;;;;;;2.72;1.70;;;6.40;76.70;;;;;;5035397;28;20738;-61
2022/02/19 09:44:51;;;;;;;2.88;1.45;;;6.50;76.20;;;;;;5035912;28;20213;-62
2022/02/19 09:47:25;;;;;;;4.13;1.70;;;6.60;75.80;;;;;;5035642;28;20202;-62
2022/02/19 09:49:52;;;;;;;10.10;2.10;;;6.70;74.80;;;;;;5035683;28;20260;-62
2022/02/19 09:52:23;;;;;;;10.60;2.80;;;6.80;73.10;;;;;;5035452;28;20685;-63
2022/02/19 09:54:50;;;;;;;7.47;2.00;;;6.80;72.40;;;;;;5038406;28;20190;-62
2022/02/19 09:57:17;;;;;;;3.88;1.60;;;6.90;72.70;;;;;;5039573;28;20210;-61
2022/02/19 09:59:44;;;;;;;4.82;1.75;;;7.00;73.30;;;;;;5038846;28;20198;-61
2022/02/19 10:02:12;;;;;;;2.83;1.20;;;7.10;73.80;;;;;;5036583;28;20222;-61
2022/02/19 10:04:43;;;;;;;8.65;2.50;;;7.20;72.70;;;;;;5036351;28;20284;-61
2022/02/19 10:07:15;;;;;;;8.32;2.83;;;7.10;73.30;;;;;;5036866;28;20563;-62
2022/02/19 10:09:45;;;;;;;5.20;1.90;;;7.10;74.70;;;;;;5036192;28;20237;-64
2022/02/19 10:12:14;;;;;;;10.10;3.22;;;7.20;75.10;;;;;;5036038;28;20320;-62
2022/02/19 10:14:43;;;;;;;7.53;2.40;;;7.10;74.80;;;;;;5036698;28;20202;-61
2022/02/19 10:17:15;;;;;;;3.88;1.63;;;7.10;75.50;;;;;;5036770;28;20206;-62
2022/02/19 10:19:50;;;;;;;6.18;1.83;;;7.20;76.50;;;;;;5036506;28;20179;-62
2022/02/19 10:22:19;;;;;;;5.13;1.90;;;7.30;76.70;;;;;;5036464;28;20740;-61
2022/02/19 10:24:48;;;;;;;3.70;1.73;;;7.50;76.50;;;;;;5036227;28;20206;-61
2022/02/19 10:27:16;;;;;;;8.45;2.35;;;7.50;74.70;;;;;;5035755;28;20233;-61
2022/02/19 10:29:51;;;;;;;4.22;1.83;;;7.50;74.40;;;;;;5035231;28;20226;-60
2022/02/19 10:32:19;;;;;;;5.18;2.03;;;7.40;75.10;;;;;;5035194;28;20232;-59
2022/02/19 10:35:00;;;;;;;5.03;2.42;;;7.40;75.40;;;;;;5035151;28;20202;-61
2022/02/19 10:37:29;;;;;;;6.15;2.08;;;7.30;75.60;;;;;;5035069;28;20244;-60
2022/02/19 10:39:59;;;;;;;2.60;1.40;;;7.20;75.70;;;;;;5035009;28;20269;-58
2022/02/19 10:42:37;;;;;;;5.53;1.90;;;7.10;76.10;;;;;;5035764;28;20229;-61
2022/02/19 10:45:08;;;;;;;5.78;1.88;;;7.00;76.70;;;;;;5035006;28;20202;-60
2022/02/19 10:47:35;;;;;;;5.53;2.10;;;6.90;77.60;;;;;;5034315;28;20217;-61
2022/02/19 10:50:08;;;;;;;4.32;1.73;;;6.90;78.80;;;;;;5035423;28;20588;-61
2022/02/19 10:52:35;;;;;;;5.30;2.40;;;6.90;79.00;;;;;;5034837;28;20222;-61
2022/02/19 10:55:06;;;;;;;4.28;1.85;;;6.90;79.70;;;;;;5034495;28;20203;-59
2022/02/19 10:57:37;;;;;;;6.18;2.10;;;6.90;80.60;;;;;;5034561;28;20657;-60
2022/02/19 11:00:13;;;;;;;10.20;2.35;;;6.90;80.50;;;;;;5034741;28;20290;-60
2022/02/19 11:02:40;;;;;;;6.43;2.10;;;6.90;80.50;;;;;;5034850;28;20226;-58
2022/02/19 11:05:10;;;;;;;8.60;2.17;;;6.90;78.80;;;;;;5037362;28;20198;-59
2022/02/19 11:07:38;;;;;;;10.48;2.25;;;6.90;78.30;;;;;;5038668;28;20206;-60
2022/02/19 11:10:08;;;;;;;10.75;3.08;;;6.90;78.50;;;;;;5035070;28;20703;-60
2022/02/19 11:12:36;;;;;;;8.15;2.45;;;7.00;77.70;;;;;;5035116;28;20237;-60
2022/02/19 11:15:06;;;;;;;7.05;2.10;;;7.00;77.10;;;;;;5034244;28;20203;-59
2022/02/19 11:17:35;;;;;;;6.50;1.75;;;7.00;75.80;;;;;;5034035;28;20202;-60
2022/02/19 11:20:04;;;;;;;4.15;2.05;;;7.10;75.00;;;;;;5034488;28;20204;-58
2022/02/19 11:22:34;;;;;;;5.32;1.55;;;7.00;74.20;;;;;;5034081;28;20284;-56
2022/02/19 11:25:04;;;;;;;4.68;2.42;;;7.00;73.90;;;;;;5034268;28;20214;-56
2022/02/19 11:27:37;;;;;;;5.43;1.90;;;7.10;73.20;;;;;;5033714;28;20206;-56
2022/02/19 11:30:07;;;;;;;8.73;2.25;;;7.20;73.30;;;;;;5033815;28;20211;-59
2022/02/19 11:32:38;;;;;;;4.43;1.80;;;7.20;73.50;;;;;;5033664;28;20225;-61
2022/02/19 11:35:06;;;;;;;8.60;2.30;;;7.30;72.40;;;;;;5034005;28;20284;-61
2022/02/19 11:37:39;;;;;;;7.18;2.28;;;7.40;71.10;;;;;;5033916;28;20209;-60
2022/02/19 11:40:11;;;;;;;7.95;1.80;;;7.50;71.00;;;;;;5033609;28;20214;-60
2022/02/19 11:42:43;;;;;;;6.85;2.35;;;7.60;69.70;;;;;;5033500;28;20225;-60
2022/02/19 11:45:25;;;;;;;2.65;1.73;;;7.70;68.40;;;;;;5034815;28;20225;-60
2022/02/19 11:47:55;;;;;;;7.32;2.67;;;7.80;67.40;;;;;;5035222;28;20187;-61
2022/02/19 11:50:27;;;;;;;7.28;1.90;;;7.90;65.90;;;;;;5034953;28;20229;-60
2022/02/19 11:53:21;;;;;;;7.57;1.67;;;8.00;64.20;;;;;;5036229;28;20213;-60
2022/02/19 11:55:49;;;;;;;7.78;1.50;;;7.90;62.80;;;;;;5045089;22;20205;-55
2022/02/19 11:58:22;;;;;;;2.97;1.48;;;7.80;62.50;;;;;;5033724;28;20183;-56
2022/02/19 12:00:51;;;;;;;5.88;1.90;;;7.70;63.00;;;;;;5034447;28;20245;-58
2022/02/19 12:03:30;;;;;;;9.38;2.55;;;7.70;64.00;;;;;;5034629;28;20245;-58
2022/02/19 12:06:08;;;;;;;5.40;1.75;;;7.70;64.30;;;;;;5034540;28;20225;-58
2022/02/19 12:09:08;;;;;;;2.65;1.50;;;7.90;63.50;;;;;;5034110;28;20186;-58
2022/02/19 12:12:00;;;;;;;4.60;2.00;;;8.00;62.90;;;;;;5034639;28;20225;-57
2022/02/19 12:14:58;;;;;;;6.68;2.13;;;8.20;61.80;;;;;;5027141;28;20210;-59
2022/02/19 12:17:44;;;;;;;5.65;1.40;;;8.30;60.90;;;;;;5036110;28;20229;-62
2022/02/19 12:20:25;;;;;;;2.63;1.15;;;8.30;59.80;;;;;;5036069;28;20206;-57
2022/02/19 12:22:53;;;;;;;5.88;2.17;;;8.30;59.10;;;;;;5036619;28;20205;-58
2022/02/19 12:25:21;;;;;;;7.65;1.70;;;8.30;58.80;;;;;;5034950;28;20357;-57
2022/02/19 12:28:16;;;;;;;2.67;1.40;;;8.40;59.10;;;;;;5034354;28;20223;-58
2022/02/19 12:30:45;;;;;;;5.47;1.42;;;8.50;58.70;;;;;;5037066;28;20222;-57
2022/02/19 12:33:13;;;;;;;3.10;1.45;;;8.50;57.40;;;;;;5038648;28;20202;-58
2022/02/19 12:35:42;;;;;;;4.30;1.90;;;8.40;57.00;;;;;;5039358;28;20666;-61
2022/02/19 12:38:12;;;;;;;4.55;1.60;;;8.50;57.30;;;;;;5038517;28;20202;-58
2022/02/19 12:40:39;;;;;;;5.88;1.67;;;8.50;56.70;;;;;;5038022;28;20194;-59
2022/02/19 12:43:12;;;;;;;6.80;2.67;;;8.40;56.00;;;;;;5038920;28;20244;-60
2022/02/19 12:45:40;;;;;;;8.82;2.70;;;8.30;56.40;;;;;;5038570;28;20190;-58
2022/02/19 12:48:08;;;;;;;4.15;2.08;;;8.30;57.00;;;;;;5037823;28;20206;-57
2022/02/19 12:50:35;;;;;;;7.63;2.00;;;8.20;57.20;;;;;;5037564;28;20222;-57
2022/02/19 12:53:03;;;;;;;6.30;1.70;;;8.20;57.50;;;;;;5037776;28;20292;-58
2022/02/19 12:55:30;;;;;;;5.18;2.05;;;8.10;57.70;;;;;;5037304;28;20233;-58
2022/02/19 12:58:02;;;;;;;8.77;2.00;;;8.10;57.90;;;;;;5038141;28;20206;-57
2022/02/19 13:00:29;;;;;;;5.32;1.70;;;8.00;57.40;;;;;;5039284;28;20264;-58
2022/02/19 13:02:57;;;;;;;9.90;2.72;;;8.00;57.50;;;;;;5038855;28;20206;-58
2022/02/19 13:05:26;;;;;;;9.90;2.10;;;7.90;57.40;;;;;;5038798;28;20270;-58
2022/02/19 13:07:53;;;;;;;4.57;2.05;;;7.90;57.70;;;;;;5038823;28;20203;-57
2022/02/19 13:10:21;;;;;;;7.78;2.75;;;8.00;57.50;;;;;;5039491;28;20225;-56
2022/02/19 13:12:48;;;;;;;7.50;2.15;;;8.00;57.40;;;;;;5039059;28;20260;-58